sensor_id;sensor_type;location;lat;lon;timestamp;temperature;humidity
23813;DHT22;12087;45.190;5.688;2022-09-02T00:02:32;21.50;99.90
23813;DHT22;12087;45.190;5.688;2022-09-02T00:07:56;21.50;99.90
23813;DHT22;12087;45.190;5.688;2022-09-02T00:13:18;21.40;99.90
23813;DHT22;12087;45.190;5.688;2022-09-02T00:18:41;21.40;99.90
23813;DHT22;12087;45.190;5.688;2022-09-02T00:24:06;21.40;99.90
23813;DHT22;12087;45.190;5.688;2022-09-02T00:29:28;21.40;99.90
23813;DHT22;12087;45.190;5.688;2022-09-02T00:34:50;21.40;99.90
23813;DHT22;12087;45.190;5.688;2022-09-02T00:40:15;21.30;99.90
23813;DHT22;12087;45.190;5.688;2022-09-02T00:45:37;21.40;99.90
23813;DHT22;12087;45.190;5.688;2022-09-02T00:50:59;21.40;99.90
23813;DHT22;12087;45.190;5.688;2022-09-02T00:56:27;21.30;99.90
23813;DHT22;12087;45.190;5.688;2022-09-02T01:01:50;21.30;99.90
23813;DHT22;12087;45.190;5.688;2022-09-02T01:07:13;21.30;99.90
23813;DHT22;12087;45.190;5.688;2022-09-02T01:12:38;21.40;99.90
23813;DHT22;12087;45.190;5.688;2022-09-02T01:18:01;21.30;99.90
23813;DHT22;12087;45.190;5.688;2022-09-02T01:23:25;21.30;99.90
23813;DHT22;12087;45.190;5.688;2022-09-02T01:28:48;21.30;99.90
23813;DHT22;12087;45.190;5.688;2022-09-02T01:34:10;21.20;99.90
23813;DHT22;12087;45.190;5.688;2022-09-02T01:39:34;21.10;99.90
23813;DHT22;12087;45.190;5.688;2022-09-02T01:44:56;21.10;99.90
23813;DHT22;12087;45.190;5.688;2022-09-02T01:50:18;21.10;99.90
23813;DHT22;12087;45.190;5.688;2022-09-02T01:55:42;21.00;99.90
23813;DHT22;12087;45.190;5.688;2022-09-02T02:01:04;20.90;99.90
23813;DHT22;12087;45.190;5.688;2022-09-02T02:06:27;20.80;99.90
23813;DHT22;12087;45.190;5.688;2022-09-02T02:11:51;20.80;99.90
23813;DHT22;12087;45.190;5.688;2022-09-02T02:17:13;20.70;99.90
23813;DHT22;12087;45.190;5.688;2022-09-02T02:22:36;20.70;99.90
23813;DHT22;12087;45.190;5.688;2022-09-02T02:28:00;20.60;99.90
23813;DHT22;12087;45.190;5.688;2022-09-02T02:33:22;20.60;99.90
23813;DHT22;12087;45.190;5.688;2022-09-02T02:38:45;20.50;99.90
23813;DHT22;12087;45.190;5.688;2022-09-02T02:44:08;20.50;99.90
23813;DHT22;12087;45.190;5.688;2022-09-02T02:49:31;20.50;99.90
23813;DHT22;12087;45.190;5.688;2022-09-02T02:54:56;20.40;99.90
23813;DHT22;12087;45.190;5.688;2022-09-02T03:00:22;20.30;99.90
23813;DHT22;12087;45.190;5.688;2022-09-02T03:05:45;20.30;99.90
23813;DHT22;12087;45.190;5.688;2022-09-02T03:11:08;20.30;99.90
23813;DHT22;12087;45.190;5.688;2022-09-02T03:16:33;20.30;99.90
23813;DHT22;12087;45.190;5.688;2022-09-02T03:21:55;20.20;99.90
23813;DHT22;12087;45.190;5.688;2022-09-02T03:27:17;20.10;99.90
23813;DHT22;12087;45.190;5.688;2022-09-02T03:32:41;20.00;99.90
23813;DHT22;12087;45.190;5.688;2022-09-02T03:38:03;20.00;99.90
23813;DHT22;12087;45.190;5.688;2022-09-02T03:43:25;20.00;99.90
23813;DHT22;12087;45.190;5.688;2022-09-02T03:48:49;19.90;99.90
23813;DHT22;12087;45.190;5.688;2022-09-02T03:54:12;19.90;99.90
23813;DHT22;12087;45.190;5.688;2022-09-02T03:59:34;19.90;99.90
23813;DHT22;12087;45.190;5.688;2022-09-02T04:04:58;19.80;99.90
23813;DHT22;12087;45.190;5.688;2022-09-02T04:10:20;19.80;99.90
23813;DHT22;12087;45.190;5.688;2022-09-02T04:15:44;19.80;99.90
23813;DHT22;12087;45.190;5.688;2022-09-02T04:21:10;19.70;99.90
23813;DHT22;12087;45.190;5.688;2022-09-02T04:26:33;19.70;99.90
23813;DHT22;12087;45.190;5.688;2022-09-02T04:31:55;19.70;99.90
23813;DHT22;12087;45.190;5.688;2022-09-02T04:37:18;19.70;99.90
23813;DHT22;12087;45.190;5.688;2022-09-02T04:42:41;19.70;99.90
23813;DHT22;12087;45.190;5.688;2022-09-02T04:48:03;19.70;99.90
23813;DHT22;12087;45.190;5.688;2022-09-02T04:53:27;19.60;99.90
23813;DHT22;12087;45.190;5.688;2022-09-02T04:58:50;19.60;99.90
23813;DHT22;12087;45.190;5.688;2022-09-02T05:04:12;19.70;99.90
23813;DHT22;12087;45.190;5.688;2022-09-02T05:09:36;19.70;99.90
23813;DHT22;12087;45.190;5.688;2022-09-02T05:14:58;19.70;99.90
23813;DHT22;12087;45.190;5.688;2022-09-02T05:20:21;19.70;99.90
23813;DHT22;12087;45.190;5.688;2022-09-02T05:25:45;19.60;99.90
23813;DHT22;12087;45.190;5.688;2022-09-02T05:31:09;19.60;99.90
23813;DHT22;12087;45.190;5.688;2022-09-02T05:36:32;19.60;99.90
23813;DHT22;12087;45.190;5.688;2022-09-02T05:41:57;19.60;99.90
23813;DHT22;12087;45.190;5.688;2022-09-02T05:47:19;19.60;99.90
23813;DHT22;12087;45.190;5.688;2022-09-02T05:52:41;19.60;99.90
23813;DHT22;12087;45.190;5.688;2022-09-02T05:58:05;19.60;99.90
23813;DHT22;12087;45.190;5.688;2022-09-02T06:03:27;19.60;99.90
23813;DHT22;12087;45.190;5.688;2022-09-02T06:08:49;19.60;99.90
23813;DHT22;12087;45.190;5.688;2022-09-02T06:14:13;19.60;99.90
23813;DHT22;12087;45.190;5.688;2022-09-02T06:19:36;19.70;99.90
23813;DHT22;12087;45.190;5.688;2022-09-02T06:24:58;19.70;99.90
23813;DHT22;12087;45.190;5.688;2022-09-02T06:30:22;19.70;99.90
23813;DHT22;12087;45.190;5.688;2022-09-02T06:35:45;19.80;99.90
23813;DHT22;12087;45.190;5.688;2022-09-02T06:41:09;19.90;99.90
23813;DHT22;12087;45.190;5.688;2022-09-02T06:46:35;19.90;99.90
23813;DHT22;12087;45.190;5.688;2022-09-02T06:51:58;19.90;99.90
23813;DHT22;12087;45.190;5.688;2022-09-02T06:57:20;20.00;99.90
23813;DHT22;12087;45.190;5.688;2022-09-02T07:02:44;20.00;99.90
23813;DHT22;12087;45.190;5.688;2022-09-02T07:08:26;20.10;99.90
23813;DHT22;12087;45.190;5.688;2022-09-02T07:13:49;20.10;99.90
23813;DHT22;12087;45.190;5.688;2022-09-02T07:19:13;20.10;99.90
23813;DHT22;12087;45.190;5.688;2022-09-02T07:24:35;20.30;99.90
23813;DHT22;12087;45.190;5.688;2022-09-02T07:29:57;20.40;99.90
23813;DHT22;12087;45.190;5.688;2022-09-02T07:35:21;20.50;99.90
23813;DHT22;12087;45.190;5.688;2022-09-02T07:41:13;20.70;99.90
23813;DHT22;12087;45.190;5.688;2022-09-02T07:46:35;21.00;99.90
23813;DHT22;12087;45.190;5.688;2022-09-02T07:51:59;21.30;99.90
23813;DHT22;12087;45.190;5.688;2022-09-02T07:57:21;21.50;99.90
23813;DHT22;12087;45.190;5.688;2022-09-02T08:02:44;21.70;99.90
23813;DHT22;12087;45.190;5.688;2022-09-02T08:08:08;22.00;99.90
23813;DHT22;12087;45.190;5.688;2022-09-02T08:13:30;22.20;99.90
23813;DHT22;12087;45.190;5.688;2022-09-02T08:18:53;22.40;99.90
23813;DHT22;12087;45.190;5.688;2022-09-02T08:24:16;22.30;99.90
23813;DHT22;12087;45.190;5.688;2022-09-02T08:29:39;22.30;99.90
23813;DHT22;12087;45.190;5.688;2022-09-02T08:35:01;22.30;99.90
23813;DHT22;12087;45.190;5.688;2022-09-02T08:40:30;22.50;99.90
23813;DHT22;12087;45.190;5.688;2022-09-02T08:45:59;22.70;99.90
23813;DHT22;12087;45.190;5.688;2022-09-02T08:51:28;22.90;99.90
23813;DHT22;12087;45.190;5.688;2022-09-02T08:56:54;23.10;99.90
23813;DHT22;12087;45.190;5.688;2022-09-02T09:02:22;23.10;99.90
23813;DHT22;12087;45.190;5.688;2022-09-02T09:07:57;23.30;99.90
23813;DHT22;12087;45.190;5.688;2022-09-02T09:13:51;23.40;99.90
23813;DHT22;12087;45.190;5.688;2022-09-02T09:19:19;23.50;99.90
23813;DHT22;12087;45.190;5.688;2022-09-02T09:24:46;23.70;99.90
23813;DHT22;12087;45.190;5.688;2022-09-02T09:30:12;23.90;99.90
23813;DHT22;12087;45.190;5.688;2022-09-02T09:35:47;23.90;99.90
23813;DHT22;12087;45.190;5.688;2022-09-02T09:41:17;23.90;99.90
23813;DHT22;12087;45.190;5.688;2022-09-02T09:46:42;23.90;99.90
23813;DHT22;12087;45.190;5.688;2022-09-02T09:52:05;23.80;99.90
23813;DHT22;12087;45.190;5.688;2022-09-02T09:57:27;23.70;99.90
23813;DHT22;12087;45.190;5.688;2022-09-02T10:02:53;23.70;99.90
23813;DHT22;12087;45.190;5.688;2022-09-02T10:08:21;23.60;99.90
23813;DHT22;12087;45.190;5.688;2022-09-02T10:13:43;23.60;99.90
23813;DHT22;12087;45.190;5.688;2022-09-02T10:19:13;23.70;99.90
23813;DHT22;12087;45.190;5.688;2022-09-02T10:24:51;23.70;99.90
23813;DHT22;12087;45.190;5.688;2022-09-02T10:30:18;23.70;99.90
23813;DHT22;12087;45.190;5.688;2022-09-02T10:35:44;23.80;99.90
23813;DHT22;12087;45.190;5.688;2022-09-02T10:41:23;24.00;99.90
23813;DHT22;12087;45.190;5.688;2022-09-02T10:46:55;24.30;99.90
23813;DHT22;12087;45.190;5.688;2022-09-02T10:52:31;24.30;99.90
23813;DHT22;12087;45.190;5.688;2022-09-02T10:58:01;24.30;99.90
23813;DHT22;12087;45.190;5.688;2022-09-02T11:03:29;24.30;99.90
23813;DHT22;12087;45.190;5.688;2022-09-02T11:08:59;24.30;99.90
23813;DHT22;12087;45.190;5.688;2022-09-02T11:14:25;24.30;99.90
23813;DHT22;12087;45.190;5.688;2022-09-02T11:19:52;24.50;99.90
23813;DHT22;12087;45.190;5.688;2022-09-02T11:25:21;24.50;99.90
23813;DHT22;12087;45.190;5.688;2022-09-02T11:30:52;24.50;99.90
23813;DHT22;12087;45.190;5.688;2022-09-02T11:36:16;24.30;99.90
23813;DHT22;12087;45.190;5.688;2022-09-02T11:41:57;24.10;99.90
23813;DHT22;12087;45.190;5.688;2022-09-02T11:48:03;24.10;99.90
23813;DHT22;12087;45.190;5.688;2022-09-02T11:53:29;24.10;99.90
23813;DHT22;12087;45.190;5.688;2022-09-02T11:58:54;24.20;99.90
23813;DHT22;12087;45.190;5.688;2022-09-02T12:04:21;24.10;99.90
23813;DHT22;12087;45.190;5.688;2022-09-02T12:09:47;24.10;99.90
23813;DHT22;12087;45.190;5.688;2022-09-02T12:15:14;23.90;99.90
23813;DHT22;12087;45.190;5.688;2022-09-02T12:21:09;23.70;99.90
23813;DHT22;12087;45.190;5.688;2022-09-02T12:33:03;23.50;99.90
23813;DHT22;12087;45.190;5.688;2022-09-02T12:38:34;23.50;99.90
23813;DHT22;12087;45.190;5.688;2022-09-02T12:44:20;23.50;99.90
23813;DHT22;12087;45.190;5.688;2022-09-02T12:49:52;23.40;99.90
23813;DHT22;12087;45.190;5.688;2022-09-02T12:55:21;23.40;99.90
23813;DHT22;12087;45.190;5.688;2022-09-02T13:00:59;23.40;99.90
23813;DHT22;12087;45.190;5.688;2022-09-02T13:06:37;23.40;99.90
23813;DHT22;12087;45.190;5.688;2022-09-02T13:12:29;23.40;99.90
23813;DHT22;12087;45.190;5.688;2022-09-02T13:30:06;23.40;99.90
23813;DHT22;12087;45.190;5.688;2022-09-02T13:35:29;23.50;99.90
23813;DHT22;12087;45.190;5.688;2022-09-02T13:40:54;23.60;99.90
23813;DHT22;12087;45.190;5.688;2022-09-02T13:46:16;23.90;99.90
23813;DHT22;12087;45.190;5.688;2022-09-02T13:51:41;24.50;99.90
23813;DHT22;12087;45.190;5.688;2022-09-02T13:57:08;24.90;99.90
23813;DHT22;12087;45.190;5.688;2022-09-02T14:02:33;25.00;99.90
23813;DHT22;12087;45.190;5.688;2022-09-02T14:07:58;25.50;99.90
23813;DHT22;12087;45.190;5.688;2022-09-02T14:13:26;25.90;99.90
23813;DHT22;12087;45.190;5.688;2022-09-02T14:19:03;26.00;99.90
23813;DHT22;12087;45.190;5.688;2022-09-02T14:24:28;25.90;99.90
23813;DHT22;12087;45.190;5.688;2022-09-02T14:29:55;26.30;99.90
23813;DHT22;12087;45.190;5.688;2022-09-02T14:35:20;26.40;99.90
23813;DHT22;12087;45.190;5.688;2022-09-02T14:40:43;26.60;99.90
23813;DHT22;12087;45.190;5.688;2022-09-02T14:46:20;26.60;99.90
23813;DHT22;12087;45.190;5.688;2022-09-02T14:51:45;26.70;99.90
23813;DHT22;12087;45.190;5.688;2022-09-02T14:57:20;26.70;99.90
23813;DHT22;12087;45.190;5.688;2022-09-02T15:02:45;26.60;99.90
23813;DHT22;12087;45.190;5.688;2022-09-02T15:14:23;26.50;99.90
23813;DHT22;12087;45.190;5.688;2022-09-02T15:19:47;26.60;99.90
23813;DHT22;12087;45.190;5.688;2022-09-02T15:25:10;26.50;99.90
23813;DHT22;12087;45.190;5.688;2022-09-02T15:30:33;26.40;99.90
23813;DHT22;12087;45.190;5.688;2022-09-02T15:36:06;26.30;99.90
23813;DHT22;12087;45.190;5.688;2022-09-02T15:41:28;26.30;99.90
23813;DHT22;12087;45.190;5.688;2022-09-02T15:46:54;26.20;99.90
23813;DHT22;12087;45.190;5.688;2022-09-02T15:52:18;26.20;99.90
23813;DHT22;12087;45.190;5.688;2022-09-02T15:57:43;26.10;99.90
23813;DHT22;12087;45.190;5.688;2022-09-02T16:03:06;26.00;99.90
23813;DHT22;12087;45.190;5.688;2022-09-02T16:08:29;25.90;99.90
23813;DHT22;12087;45.190;5.688;2022-09-02T16:13:56;25.80;99.90
23813;DHT22;12087;45.190;5.688;2022-09-02T16:19:19;25.70;99.90
23813;DHT22;12087;45.190;5.688;2022-09-02T16:24:43;25.60;99.90
23813;DHT22;12087;45.190;5.688;2022-09-02T16:30:07;25.60;99.90
23813;DHT22;12087;45.190;5.688;2022-09-02T16:35:29;25.60;99.90
23813;DHT22;12087;45.190;5.688;2022-09-02T16:41:09;25.60;99.90
23813;DHT22;12087;45.190;5.688;2022-09-02T16:46:48;25.60;99.90
23813;DHT22;12087;45.190;5.688;2022-09-02T16:52:27;25.50;99.90
23813;DHT22;12087;45.190;5.688;2022-09-02T16:57:54;25.40;99.90
23813;DHT22;12087;45.190;5.688;2022-09-02T17:16:09;25.20;99.90
23813;DHT22;12087;45.190;5.688;2022-09-02T17:21:57;25.10;99.90
23813;DHT22;12087;45.190;5.688;2022-09-02T17:33:51;25.00;99.90
23813;DHT22;12087;45.190;5.688;2022-09-02T17:39:16;24.90;99.90
23813;DHT22;12087;45.190;5.688;2022-09-02T17:44:41;24.90;99.90
23813;DHT22;12087;45.190;5.688;2022-09-02T17:50:06;24.70;99.90
23813;DHT22;12087;45.190;5.688;2022-09-02T17:55:32;24.70;99.90
23813;DHT22;12087;45.190;5.688;2022-09-02T18:00:55;24.60;99.90
23813;DHT22;12087;45.190;5.688;2022-09-02T18:06:22;24.50;99.90
23813;DHT22;12087;45.190;5.688;2022-09-02T18:11:48;24.40;99.90
23813;DHT22;12087;45.190;5.688;2022-09-02T18:17:21;24.40;99.90
23813;DHT22;12087;45.190;5.688;2022-09-02T18:23:05;24.40;99.90
23813;DHT22;12087;45.190;5.688;2022-09-02T18:28:44;24.30;99.90
23813;DHT22;12087;45.190;5.688;2022-09-02T18:34:24;24.20;99.90
23813;DHT22;12087;45.190;5.688;2022-09-02T18:40:02;24.10;99.90
23813;DHT22;12087;45.190;5.688;2022-09-02T18:45:31;24.00;99.90
23813;DHT22;12087;45.190;5.688;2022-09-02T18:50:57;24.00;99.90
23813;DHT22;12087;45.190;5.688;2022-09-02T18:56:27;24.00;99.90
23813;DHT22;12087;45.190;5.688;2022-09-02T19:01:51;23.90;99.90
23813;DHT22;12087;45.190;5.688;2022-09-02T19:07:18;23.90;99.90
23813;DHT22;12087;45.190;5.688;2022-09-02T19:13:01;23.80;99.90
23813;DHT22;12087;45.190;5.688;2022-09-02T19:18:25;23.70;99.90
23813;DHT22;12087;45.190;5.688;2022-09-02T19:23:48;23.70;99.90
23813;DHT22;12087;45.190;5.688;2022-09-02T19:29:14;23.70;99.90
23813;DHT22;12087;45.190;5.688;2022-09-02T19:34:38;23.60;99.90
23813;DHT22;12087;45.190;5.688;2022-09-02T19:40:07;23.60;99.90
23813;DHT22;12087;45.190;5.688;2022-09-02T19:45:32;23.50;99.90
23813;DHT22;12087;45.190;5.688;2022-09-02T19:50:58;23.50;99.90
23813;DHT22;12087;45.190;5.688;2022-09-02T19:56:21;23.40;99.90
23813;DHT22;12087;45.190;5.688;2022-09-02T20:01:45;23.30;99.90
23813;DHT22;12087;45.190;5.688;2022-09-02T20:07:10;23.30;99.90
23813;DHT22;12087;45.190;5.688;2022-09-02T20:12:33;23.30;99.90
23813;DHT22;12087;45.190;5.688;2022-09-02T20:18:08;23.20;99.90
23813;DHT22;12087;45.190;5.688;2022-09-02T20:23:32;23.20;99.90
23813;DHT22;12087;45.190;5.688;2022-09-02T20:29:08;23.10;99.90
23813;DHT22;12087;45.190;5.688;2022-09-02T20:36:01;22.90;99.90
23813;DHT22;12087;45.190;5.688;2022-09-02T20:40:48;22.80;99.90
23813;DHT22;12087;45.190;5.688;2022-09-02T20:46:22;22.60;99.90
23813;DHT22;12087;45.190;5.688;2022-09-02T20:51:57;22.20;99.90
23813;DHT22;12087;45.190;5.688;2022-09-02T20:57:36;21.90;99.90
23813;DHT22;12087;45.190;5.688;2022-09-02T21:03:04;21.60;99.90
23813;DHT22;12087;45.190;5.688;2022-09-02T21:08:43;21.50;99.90
23813;DHT22;12087;45.190;5.688;2022-09-02T21:14:14;21.40;99.90
23813;DHT22;12087;45.190;5.688;2022-09-02T21:19:52;21.30;99.90
23813;DHT22;12087;45.190;5.688;2022-09-02T21:25:22;21.40;99.90
23813;DHT22;12087;45.190;5.688;2022-09-02T21:30:47;21.40;99.90
23813;DHT22;12087;45.190;5.688;2022-09-02T21:36:23;21.30;99.90
23813;DHT22;12087;45.190;5.688;2022-09-02T21:41:56;21.20;99.90
23813;DHT22;12087;45.190;5.688;2022-09-02T21:47:24;21.00;99.90
23813;DHT22;12087;45.190;5.688;2022-09-02T21:53:02;20.90;99.90
23813;DHT22;12087;45.190;5.688;2022-09-02T22:10:31;20.70;99.90
23813;DHT22;12087;45.190;5.688;2022-09-02T22:16:29;20.70;99.90
23813;DHT22;12087;45.190;5.688;2022-09-02T22:28:37;20.50;99.90
23813;DHT22;12087;45.190;5.688;2022-09-02T22:34:17;20.40;99.90
23813;DHT22;12087;45.190;5.688;2022-09-02T22:40:11;20.30;99.90
23813;DHT22;12087;45.190;5.688;2022-09-02T22:52:23;20.30;99.90
23813;DHT22;12087;45.190;5.688;2022-09-02T23:05:06;20.30;99.90
23813;DHT22;12087;45.190;5.688;2022-09-02T23:11:07;20.30;99.90
23813;DHT22;12087;45.190;5.688;2022-09-02T23:22:52;20.10;99.90
23813;DHT22;12087;45.190;5.688;2022-09-02T23:28:26;20.10;99.90
23813;DHT22;12087;45.190;5.688;2022-09-02T23:34:24;20.10;99.90
23813;DHT22;12087;45.190;5.688;2022-09-02T23:39:58;20.00;99.90
23813;DHT22;12087;45.190;5.688;2022-09-02T23:45:26;20.00;99.90
23813;DHT22;12087;45.190;5.688;2022-09-02T23:51:02;20.00;99.90
23813;DHT22;12087;45.190;5.688;2022-09-02T23:56:47;19.90;99.90
